Aviation Digital Data Service (ADDS)

Output produced by METARs form (1316 UTC 05 June 2023)
found at http://www.aviationweather.gov/metar/data/
 
LHDC 051245Z AUTO VRB06KT CAVOK 27/08 Q1018 NOSIG
LHDC 051215Z AUTO 08006KT 360V170 CAVOK 26/08 Q1018 NOSIG
LHDC 051145Z AUTO 12007KT 050V180 CAVOK 26/08 Q1019 NOSIG
LHDC 051115Z AUTO 11009KT 070V160 CAVOK 26/09 Q1019 NOSIG
LHDC 051045Z AUTO 10009KT 020V150 CAVOK 26/07 Q1019 NOSIG
LHDC 051015Z AUTO 08007KT 010V140 CAVOK 26/08 Q1019 NOSIG
LHDC 050945Z AUTO 10007KT 010V170 CAVOK 25/10 Q1019 NOSIG
LHDC 050915Z AUTO 06007KT 020V120 CAVOK 25/11 Q1019 NOSIG
LHDC 050845Z AUTO 09007KT 340V140 CAVOK 24/08 Q1020 NOSIG
LHDC 050815Z AUTO 07006KT 360V120 CAVOK 23/10 Q1020 NOSIG
LHDC 050745Z AUTO 07005KT 350V120 CAVOK 23/09 Q1020 NOSIG
TAF LHDC 051115Z 0512/0521 08007KT CAVOK 
     BECMG 0517/0520 VRB03KT